createdAt,value
2017-08-29T00:00:24.615Z,1010.15
2017-08-29T00:01:24.611Z,1010.18
2017-08-29T00:02:24.588Z,1010.15
2017-08-29T00:03:24.573Z,1010.17
2017-08-29T00:04:24.559Z,1010.15
2017-08-29T00:05:24.549Z,1010.14
2017-08-29T00:06:24.533Z,1010.17
2017-08-29T00:07:24.525Z,1010.14
2017-08-29T00:08:24.503Z,1010.19
2017-08-29T00:09:24.495Z,1010.18
2017-08-29T00:10:24.483Z,1010.12
2017-08-29T00:11:24.463Z,1010.15
2017-08-29T00:12:24.453Z,1010.18
2017-08-29T00:13:24.444Z,1010.18
2017-08-29T00:14:24.424Z,1010.2
2017-08-29T00:15:24.413Z,1010.24
2017-08-29T00:16:24.396Z,1010.21
2017-08-29T00:17:24.386Z,1010.19
2017-08-29T00:18:24.369Z,1010.19
2017-08-29T00:19:24.353Z,1010.2
2017-08-29T00:20:24.345Z,1010.19
2017-08-29T00:21:24.324Z,1010.2
2017-08-29T00:22:24.310Z,1010.2
2017-08-29T00:23:24.304Z,1010.18
2017-08-29T00:24:24.284Z,1010.18
2017-08-29T00:25:24.274Z,1010.2
2017-08-29T00:26:24.264Z,1010.18
2017-08-29T00:27:24.240Z,1010.21
2017-08-29T00:28:24.232Z,1010.24
2017-08-29T00:29:24.211Z,1010.2
2017-08-29T00:30:24.197Z,1010.16
2017-08-29T00:31:24.184Z,1010.19
2017-08-29T00:32:24.180Z,1010.14
2017-08-29T00:33:24.159Z,1010.18
2017-08-29T00:34:24.144Z,1010.18
2017-08-29T00:35:24.133Z,1010.17
2017-08-29T00:36:24.118Z,1010.14
2017-08-29T00:37:24.104Z,1010.15
2017-08-29T00:38:24.103Z,1010.17
2017-08-29T00:39:24.072Z,1010.16
2017-08-29T00:40:24.060Z,1010.14
2017-08-29T00:41:24.053Z,1010.18
2017-08-29T00:42:24.029Z,1010.17
2017-08-29T00:43:24.026Z,1010.14
2017-08-29T00:44:24.002Z,1010.15
2017-08-29T00:45:23.992Z,1010.11
2017-08-29T00:46:23.976Z,1010.15
2017-08-29T00:47:23.959Z,1010.12
2017-08-29T00:48:23.952Z,1010.14
2017-08-29T00:49:23.942Z,1010.15
2017-08-29T00:50:23.915Z,1010.14
2017-08-29T00:51:23.900Z,1010.16
2017-08-29T00:52:23.890Z,1010.16
2017-08-29T00:53:23.888Z,1010.11
2017-08-29T00:54:23.861Z,1010.07
2017-08-29T00:55:23.849Z,1010.11
2017-08-29T00:56:23.829Z,1010.07
2017-08-29T00:57:23.830Z,1010.1
2017-08-29T00:58:23.804Z,1010.06
2017-08-29T00:59:23.787Z,1010
2017-08-29T01:00:23.798Z,1010.02
2017-08-29T01:01:23.762Z,1009.97
2017-08-29T01:02:23.749Z,1009.98
2017-08-29T01:03:23.729Z,1009.94
2017-08-29T01:04:23.719Z,1009.93
2017-08-29T01:05:23.699Z,1009.94
2017-08-29T01:06:23.688Z,1009.96
2017-08-29T01:07:23.681Z,1009.95
2017-08-29T01:08:23.658Z,1009.92
2017-08-29T01:09:23.646Z,1009.92
2017-08-29T01:10:23.629Z,1009.92
2017-08-29T01:11:23.618Z,1009.92
2017-08-29T01:12:23.603Z,1009.92
2017-08-29T01:13:23.586Z,1009.91
2017-08-29T01:14:23.570Z,1009.95
2017-08-29T01:15:23.560Z,1009.99
2017-08-29T01:16:23.545Z,1009.96
2017-08-29T01:17:23.530Z,1009.98
2017-08-29T01:18:23.515Z,1009.99
2017-08-29T01:19:23.504Z,1009.94
2017-08-29T01:20:23.483Z,1009.93
2017-08-29T01:21:23.469Z,1009.96
2017-08-29T01:22:23.460Z,1009.91
2017-08-29T01:23:23.440Z,1009.91
2017-08-29T01:24:23.426Z,1009.91
2017-08-29T01:25:23.419Z,1009.9
2017-08-29T01:26:23.398Z,1009.92
2017-08-29T01:27:23.382Z,1009.91
2017-08-29T01:28:23.369Z,1009.91
2017-08-29T01:29:23.353Z,1009.95
2017-08-29T01:30:23.341Z,1009.95
2017-08-29T01:31:23.322Z,1009.94
2017-08-29T01:32:23.310Z,1009.92
2017-08-29T01:33:23.297Z,1009.96
2017-08-29T01:34:23.288Z,1009.96
2017-08-29T01:35:23.268Z,1009.97
2017-08-29T01:36:23.255Z,1009.98
2017-08-29T01:37:23.238Z,1009.96
2017-08-29T01:38:23.224Z,1009.97
2017-08-29T01:39:23.207Z,1009.93
2017-08-29T01:40:23.198Z,1009.96
2017-08-29T01:41:23.178Z,1009.96
2017-08-29T01:42:23.172Z,1009.96
2017-08-29T01:43:23.151Z,1009.95
2017-08-29T01:44:23.141Z,1009.91
2017-08-29T01:45:23.121Z,1009.94
2017-08-29T01:46:23.108Z,1009.92
2017-08-29T01:47:23.093Z,1009.93
2017-08-29T01:48:23.078Z,1009.92
2017-08-29T01:49:23.062Z,1009.9
2017-08-29T01:50:23.048Z,1009.94
2017-08-29T01:51:23.035Z,1009.89
2017-08-29T01:52:23.018Z,1009.9
2017-08-29T01:53:23.007Z,1009.88
2017-08-29T01:54:22.987Z,1009.85
2017-08-29T01:55:22.974Z,1009.82
2017-08-29T01:56:22.960Z,1009.81
2017-08-29T01:57:22.942Z,1009.83
2017-08-29T01:58:22.937Z,1009.8
2017-08-29T01:59:22.918Z,1009.8
2017-08-29T02:00:22.903Z,1009.78
2017-08-29T02:01:22.889Z,1009.8
2017-08-29T02:02:22.873Z,1009.78
2017-08-29T02:03:22.857Z,1009.78
2017-08-29T02:04:22.841Z,1009.79
2017-08-29T02:05:22.825Z,1009.75
2017-08-29T02:06:22.812Z,1009.76
2017-08-29T02:07:22.798Z,1009.78
2017-08-29T02:08:22.784Z,1009.78
2017-08-29T02:09:22.769Z,1009.77
2017-08-29T02:10:22.757Z,1009.77
2017-08-29T02:11:22.739Z,1009.76
2017-08-29T02:12:22.727Z,1009.77
2017-08-29T02:13:22.708Z,1009.75
2017-08-29T02:14:22.695Z,1009.72
2017-08-29T02:15:22.678Z,1009.7
2017-08-29T02:16:22.666Z,1009.67
2017-08-29T02:17:22.657Z,1009.7
2017-08-29T02:18:22.634Z,1009.68
2017-08-29T02:19:22.630Z,1009.66
2017-08-29T02:20:22.606Z,1009.67
2017-08-29T02:21:22.600Z,1009.65
2017-08-29T02:22:22.576Z,1009.62
2017-08-29T02:23:22.557Z,1009.65
2017-08-29T02:24:22.546Z,1009.66
2017-08-29T02:25:22.536Z,1009.68
2017-08-29T02:26:22.521Z,1009.67
2017-08-29T02:27:22.503Z,1009.69
2017-08-29T02:28:22.486Z,1009.63
2017-08-29T02:29:22.477Z,1009.64
2017-08-29T02:30:22.457Z,1009.61
2017-08-29T02:31:22.446Z,1009.6
2017-08-29T02:32:22.427Z,1009.66
2017-08-29T02:33:22.436Z,1009.62
2017-08-29T02:34:22.396Z,1009.64
2017-08-29T02:35:22.389Z,1009.6
2017-08-29T02:36:22.367Z,1009.58
2017-08-29T02:37:22.357Z,1009.56
2017-08-29T02:38:22.337Z,1009.56
2017-08-29T02:39:22.326Z,1009.52
2017-08-29T02:40:22.307Z,1009.51
2017-08-29T02:41:22.291Z,1009.52
2017-08-29T02:42:22.279Z,1009.53
2017-08-29T02:43:22.264Z,1009.51
2017-08-29T02:44:22.254Z,1009.47
2017-08-29T02:45:22.231Z,1009.51
2017-08-29T02:46:22.220Z,1009.48
2017-08-29T02:47:22.200Z,1009.47
2017-08-29T02:48:22.188Z,1009.43
2017-08-29T02:49:22.178Z,1009.42
2017-08-29T02:50:22.162Z,1009.46
2017-08-29T02:51:22.146Z,1009.42
2017-08-29T02:52:22.128Z,1009.42
2017-08-29T02:53:22.117Z,1009.49
2017-08-29T02:54:22.101Z,1009.45
2017-08-29T02:55:22.081Z,1009.45
2017-08-29T02:56:22.070Z,1009.47
2017-08-29T02:57:22.053Z,1009.47
2017-08-29T02:58:22.036Z,1009.47
2017-08-29T02:59:22.028Z,1009.51
2017-08-29T03:00:22.008Z,1009.48
2017-08-29T03:01:22.002Z,1009.49
2017-08-29T03:02:21.978Z,1009.47
2017-08-29T03:03:21.967Z,1009.46
2017-08-29T03:04:21.947Z,1009.45
2017-08-29T03:05:21.937Z,1009.44
2017-08-29T03:06:21.915Z,1009.43
2017-08-29T03:07:21.907Z,1009.41
2017-08-29T03:08:21.886Z,1009.42
2017-08-29T03:09:21.877Z,1009.42
2017-08-29T03:10:21.852Z,1009.38
2017-08-29T03:11:21.840Z,1009.4
2017-08-29T03:12:21.831Z,1009.39
2017-08-29T03:13:21.810Z,1009.41
2017-08-29T03:14:21.793Z,1009.4
2017-08-29T03:15:21.777Z,1009.4
2017-08-29T03:16:21.765Z,1009.36
2017-08-29T03:17:21.749Z,1009.35
2017-08-29T03:18:21.730Z,1009.35
2017-08-29T03:19:21.720Z,1009.34
2017-08-29T03:20:21.699Z,1009.35
2017-08-29T03:21:21.685Z,1009.35
2017-08-29T03:22:21.669Z,1009.3
2017-08-29T03:23:21.656Z,1009.28
2017-08-29T03:24:21.640Z,1009.31
2017-08-29T03:25:21.624Z,1009.32
2017-08-29T03:26:21.609Z,1009.29
2017-08-29T03:27:21.600Z,1009.27
2017-08-29T03:28:21.579Z,1009.3
2017-08-29T03:29:21.561Z,1009.27
2017-08-29T03:30:21.551Z,1009.27
2017-08-29T03:31:21.536Z,1009.24
2017-08-29T03:32:21.520Z,1009.22
2017-08-29T03:33:21.500Z,1009.2
2017-08-29T03:34:21.487Z,1009.22
2017-08-29T03:35:21.471Z,1009.2
2017-08-29T03:36:21.456Z,1009.19
2017-08-29T03:37:21.439Z,1009.21
2017-08-29T03:38:21.420Z,1009.22
2017-08-29T03:39:21.448Z,1009.16
2017-08-29T03:40:21.389Z,1009.17
2017-08-29T03:41:21.379Z,1009.22
2017-08-29T03:42:21.362Z,1009.19
2017-08-29T03:43:21.407Z,1009.22
2017-08-29T03:44:21.329Z,1009.26
2017-08-29T03:45:21.377Z,1009.26
2017-08-29T03:46:21.296Z,1009.29
2017-08-29T03:47:21.429Z,1009.27
2017-08-29T03:48:21.272Z,1009.25
2017-08-29T03:49:21.259Z,1009.24
2017-08-29T03:50:21.238Z,1009.24
2017-08-29T03:51:21.233Z,1009.21
2017-08-29T03:52:21.208Z,1009.24
2017-08-29T03:53:21.190Z,1009.24
2017-08-29T03:54:21.179Z,1009.19
2017-08-29T03:55:21.158Z,1009.23
2017-08-29T03:56:21.139Z,1009.18
2017-08-29T03:57:21.123Z,1009.21
2017-08-29T03:58:21.108Z,1009.22
2017-08-29T03:59:21.102Z,1009.23
2017-08-29T04:00:21.082Z,1009.23
2017-08-29T04:01:21.069Z,1009.26
2017-08-29T04:02:21.046Z,1009.24
2017-08-29T04:03:21.035Z,1009.3
2017-08-29T04:04:21.019Z,1009.27
2017-08-29T04:05:20.999Z,1009.3
2017-08-29T04:06:20.984Z,1009.27
2017-08-29T04:07:20.969Z,1009.29
2017-08-29T04:08:20.948Z,1009.26
2017-08-29T04:09:20.939Z,1009.25
2017-08-29T04:10:20.917Z,1009.23
2017-08-29T04:11:20.908Z,1009.24
2017-08-29T04:12:20.889Z,1009.23
2017-08-29T04:13:20.878Z,1009.25
2017-08-29T04:14:20.857Z,1009.24
2017-08-29T04:15:20.839Z,1009.24
2017-08-29T04:16:20.834Z,1009.27
2017-08-29T04:17:20.811Z,1009.25
2017-08-29T04:18:20.800Z,1009.28
2017-08-29T04:19:20.782Z,1009.25
2017-08-29T04:20:20.759Z,1009.26
2017-08-29T04:21:20.746Z,1009.26
2017-08-29T04:22:20.731Z,1009.26
2017-08-29T04:23:20.711Z,1009.27
2017-08-29T04:24:20.695Z,1009.22
2017-08-29T04:25:20.682Z,1009.27
2017-08-29T04:26:20.664Z,1009.26
2017-08-29T04:27:20.648Z,1009.25
2017-08-29T04:28:20.631Z,1009.22
2017-08-29T04:29:20.612Z,1009.25
2017-08-29T04:30:20.599Z,1009.23
2017-08-29T04:31:20.585Z,1009.18
2017-08-29T04:32:20.578Z,1009.21
2017-08-29T04:33:20.550Z,1009.19
2017-08-29T04:34:20.537Z,1009.17
2017-08-29T04:35:20.519Z,1009.17
2017-08-29T04:36:20.505Z,1009.16
2017-08-29T04:37:20.483Z,1009.16
2017-08-29T04:38:20.469Z,1009.15
2017-08-29T04:39:20.460Z,1009.12
2017-08-29T04:40:20.439Z,1009.17
2017-08-29T04:41:20.421Z,1009.16
2017-08-29T04:42:20.408Z,1009.13
2017-08-29T04:43:20.389Z,1009.13
2017-08-29T04:44:20.377Z,1009.15
2017-08-29T04:45:20.360Z,1009.13
2017-08-29T04:46:20.339Z,1009.15
2017-08-29T04:47:20.324Z,1009.13
2017-08-29T04:48:20.308Z,1009.17
2017-08-29T04:49:20.289Z,1009.15
2017-08-29T04:50:20.279Z,1009.15
2017-08-29T04:51:20.259Z,1009.13
2017-08-29T04:52:20.241Z,1009.15
2017-08-29T04:53:20.225Z,1009.12
2017-08-29T04:54:20.210Z,1009.09
2017-08-29T04:55:20.200Z,1009.1
2017-08-29T04:56:20.184Z,1009.1
2017-08-29T04:57:20.169Z,1009.11
2017-08-29T04:58:20.149Z,1009.08
2017-08-29T04:59:20.131Z,1009.08
2017-08-29T05:00:20.118Z,1009.1
2017-08-29T05:01:20.097Z,1009.13
2017-08-29T05:02:20.087Z,1009.16
2017-08-29T05:03:20.068Z,1009.18
2017-08-29T05:04:20.050Z,1009.15
2017-08-29T05:05:20.037Z,1009.19
2017-08-29T05:06:20.019Z,1009.19
2017-08-29T05:07:20.003Z,1009.19
2017-08-29T05:08:19.988Z,1009.21
2017-08-29T05:09:19.973Z,1009.2
2017-08-29T05:10:19.959Z,1009.22
2017-08-29T05:11:19.940Z,1009.23
2017-08-29T05:12:19.924Z,1009.22
2017-08-29T05:13:19.908Z,1009.25
2017-08-29T05:14:19.898Z,1009.26
2017-08-29T05:15:19.889Z,1009.23
2017-08-29T05:16:19.868Z,1009.24
2017-08-29T05:17:19.858Z,1009.24
2017-08-29T05:18:19.839Z,1009.23
2017-08-29T05:19:19.816Z,1009.25
2017-08-29T05:20:19.800Z,1009.28
2017-08-29T05:21:19.784Z,1009.3
2017-08-29T05:22:19.775Z,1009.3
2017-08-29T05:23:19.752Z,1009.3
2017-08-29T05:24:19.741Z,1009.25
2017-08-29T05:25:19.722Z,1009.27
2017-08-29T05:26:19.705Z,1009.27
2017-08-29T05:27:19.690Z,1009.25
2017-08-29T05:28:19.682Z,1009.28
2017-08-29T05:29:19.670Z,1009.26
2017-08-29T05:30:19.643Z,1009.28
2017-08-29T05:31:19.627Z,1009.29
2017-08-29T05:32:19.612Z,1009.3
2017-08-29T05:33:19.603Z,1009.28
2017-08-29T05:34:19.583Z,1009.28
2017-08-29T05:35:19.571Z,1009.25
2017-08-29T05:36:19.552Z,1009.26
2017-08-29T05:37:19.534Z,1009.22
2017-08-29T05:38:19.520Z,1009.25
2017-08-29T05:39:19.512Z,1009.27
2017-08-29T05:40:19.492Z,1009.23
2017-08-29T05:41:19.470Z,1009.28
2017-08-29T05:42:19.462Z,1009.3
2017-08-29T05:43:19.438Z,1009.28
2017-08-29T05:44:19.428Z,1009.29
2017-08-29T05:45:19.407Z,1009.29
2017-08-29T05:46:19.399Z,1009.28
2017-08-29T05:47:19.380Z,1009.3
2017-08-29T05:48:19.366Z,1009.3
2017-08-29T05:49:19.354Z,1009.26
2017-08-29T05:50:19.340Z,1009.27
2017-08-29T05:51:19.313Z,1009.23
2017-08-29T05:52:19.301Z,1009.24
2017-08-29T05:53:19.284Z,1009.21
2017-08-29T05:54:19.267Z,1009.19
2017-08-29T05:55:19.251Z,1009.2
2017-08-29T05:56:19.240Z,1009.17
2017-08-29T05:57:19.221Z,1009.21
2017-08-29T05:58:19.211Z,1009.16
2017-08-29T05:59:19.187Z,1009.18
2017-08-29T06:00:19.173Z,1009.2
2017-08-29T06:01:19.157Z,1009.17
2017-08-29T06:02:19.148Z,1009.17
2017-08-29T06:03:19.128Z,1009.16
2017-08-29T06:04:19.112Z,1009.14
2017-08-29T06:05:19.108Z,1009.14
2017-08-29T06:06:19.081Z,1009.16
2017-08-29T06:07:19.066Z,1009.15
2017-08-29T06:08:19.048Z,1009.15
2017-08-29T06:09:19.051Z,1009.16
2017-08-29T06:10:19.021Z,1009.16
2017-08-29T06:11:19.001Z,1009.14
2017-08-29T06:12:18.993Z,1009.14
2017-08-29T06:13:18.968Z,1009.11
2017-08-29T06:14:18.954Z,1009.14
2017-08-29T06:15:18.937Z,1009.1
2017-08-29T06:16:18.926Z,1009.13
2017-08-29T06:17:18.910Z,1009.1
2017-08-29T06:18:18.893Z,1009.09
2017-08-29T06:19:18.874Z,1009.12
2017-08-29T06:20:18.860Z,1009.12
2017-08-29T06:21:18.849Z,1009.1
2017-08-29T06:22:18.834Z,1009.11
2017-08-29T06:23:18.812Z,1009.12
2017-08-29T06:24:18.799Z,1009.08
2017-08-29T06:25:18.792Z,1009.11
2017-08-29T06:26:18.794Z,1009.09
2017-08-29T06:27:18.752Z,1009.07
2017-08-29T06:28:18.739Z,1009.09
2017-08-29T06:29:18.721Z,1009.06
2017-08-29T06:30:18.712Z,1009.08
2017-08-29T06:31:18.702Z,1009.03
2017-08-29T06:32:18.678Z,1009.03
2017-08-29T06:33:18.670Z,1009.05
2017-08-29T06:34:18.649Z,1009.01
2017-08-29T06:35:18.634Z,1009.03
2017-08-29T06:36:18.622Z,1009.03
2017-08-29T06:37:18.607Z,1009.02
2017-08-29T06:38:18.589Z,1009.01
2017-08-29T06:39:18.572Z,1008.95
2017-08-29T06:40:18.559Z,1008.94
2017-08-29T06:41:18.545Z,1008.98
2017-08-29T06:42:18.528Z,1008.97
2017-08-29T06:43:18.515Z,1008.96
2017-08-29T06:44:18.502Z,1009
2017-08-29T06:45:18.497Z,1008.97
2017-08-29T06:46:18.482Z,1009
2017-08-29T06:47:18.460Z,1009.01
2017-08-29T06:48:18.442Z,1009.07
2017-08-29T06:49:18.426Z,1009.08
2017-08-29T06:50:18.412Z,1009.19
2017-08-29T06:51:18.404Z,1009.5
2017-08-29T06:52:18.381Z,1009.97
2017-08-29T06:53:18.374Z,1010.02
2017-08-29T06:54:18.357Z,1009.74
2017-08-29T06:55:18.351Z,1009.43
2017-08-29T06:56:18.331Z,1009.24
2017-08-29T06:57:18.320Z,1009.17
2017-08-29T06:58:18.324Z,1009.12
2017-08-29T06:59:18.307Z,1009.17
2017-08-29T07:00:18.293Z,1009.16
2017-08-29T07:01:18.281Z,1009.17
2017-08-29T07:02:18.272Z,1009.18
2017-08-29T07:03:18.267Z,1009.15
2017-08-29T07:04:18.251Z,1009.17
2017-08-29T07:05:18.242Z,1009.17
2017-08-29T07:06:18.232Z,1009.2
2017-08-29T07:07:18.223Z,1009.17
2017-08-29T07:08:18.218Z,1009.19
2017-08-29T07:09:18.440Z,1009.16
2017-08-29T07:10:18.199Z,1009.17
2017-08-29T07:11:18.201Z,1009.18
2017-08-29T07:12:18.185Z,1009.17
2017-08-29T07:13:18.195Z,1009.2
2017-08-29T07:14:18.164Z,1009.2
2017-08-29T07:15:18.162Z,1009.2
2017-08-29T07:16:18.155Z,1009.21
2017-08-29T07:17:18.147Z,1009.15
2017-08-29T07:18:18.142Z,1009.16
2017-08-29T07:19:18.133Z,1009.17
2017-08-29T07:20:18.122Z,1009.18
2017-08-29T07:21:18.121Z,1009.26
2017-08-29T07:22:18.109Z,1009.44
2017-08-29T07:23:18.103Z,1009.49
2017-08-29T07:24:18.092Z,1009.5
2017-08-29T07:25:18.102Z,1009.55
2017-08-29T07:26:18.308Z,1009.49
2017-08-29T07:27:18.068Z,1009.51
2017-08-29T07:28:18.065Z,1009.49
2017-08-29T07:29:18.063Z,1009.55
2017-08-29T07:30:18.049Z,1009.58
2017-08-29T07:31:18.049Z,1009.5
2017-08-29T07:32:18.039Z,1009.43
2017-08-29T07:33:18.032Z,1009.34
2017-08-29T07:34:18.023Z,1009.25
2017-08-29T07:35:18.017Z,1009.22
2017-08-29T07:36:18.010Z,1009.2
2017-08-29T07:37:18.009Z,1009.19
2017-08-29T07:38:18.000Z,1009.17
2017-08-29T07:39:17.999Z,1009.15
2017-08-29T07:40:17.991Z,1009.16
2017-08-29T07:41:17.987Z,1009.14
2017-08-29T07:42:17.989Z,1009.18
2017-08-29T07:43:17.978Z,1009.17
2017-08-29T07:44:17.974Z,1009.19
2017-08-29T07:45:17.972Z,1009.18
2017-08-29T07:46:17.969Z,1009.16
2017-08-29T07:47:17.966Z,1009.18
2017-08-29T07:48:17.958Z,1009.21
2017-08-29T07:49:17.954Z,1009.21
2017-08-29T07:50:17.960Z,1009.18
2017-08-29T07:51:17.949Z,1009.2
2017-08-29T07:52:17.949Z,1009.2
2017-08-29T07:53:17.942Z,1009.19
2017-08-29T07:54:18.033Z,1009.18
2017-08-29T07:55:17.935Z,1009.19
2017-08-29T07:56:18.001Z,1009.17
2017-08-29T07:57:17.929Z,1009.2
2017-08-29T07:58:17.971Z,1009.2
2017-08-29T07:59:17.928Z,1009.22
2017-08-29T08:00:17.927Z,1009.22
2017-08-29T08:01:17.919Z,1009.2
2017-08-29T08:02:17.969Z,1009.23
2017-08-29T08:03:17.913Z,1009.23
2017-08-29T08:04:17.919Z,1009.21
2017-08-29T08:05:17.919Z,1009.22
2017-08-29T08:06:17.909Z,1009.21
2017-08-29T08:07:17.907Z,1009.22
2017-08-29T08:08:17.907Z,1009.22
2017-08-29T08:09:17.901Z,1009.19
2017-08-29T08:10:17.899Z,1009.22
2017-08-29T08:11:17.900Z,1009.23
2017-08-29T08:12:17.902Z,1009.24
2017-08-29T08:13:17.892Z,1009.21
2017-08-29T08:14:17.889Z,1009.21
2017-08-29T08:15:17.890Z,1009.22
2017-08-29T08:16:17.887Z,1009.22
2017-08-29T08:17:17.886Z,1009.17
2017-08-29T08:18:17.889Z,1009.2
2017-08-29T08:19:17.887Z,1009.18
2017-08-29T08:20:17.887Z,1009.19
2017-08-29T08:21:17.886Z,1009.13
2017-08-29T08:22:17.879Z,1009.16
2017-08-29T08:23:17.971Z,1009.16
2017-08-29T08:24:17.880Z,1009.21
2017-08-29T08:25:17.881Z,1009.19
2017-08-29T08:26:17.882Z,1009.15
2017-08-29T08:27:17.926Z,1009.23
2017-08-29T08:28:17.873Z,1009.23
2017-08-29T08:29:17.878Z,1009.26
2017-08-29T08:30:17.873Z,1009.24
2017-08-29T08:31:17.875Z,1009.24
2017-08-29T08:32:17.876Z,1009.27
2017-08-29T08:33:17.875Z,1009.26
2017-08-29T08:34:17.878Z,1009.24
2017-08-29T08:35:17.879Z,1009.25
2017-08-29T08:36:17.878Z,1009.25
2017-08-29T08:37:17.870Z,1009.23
2017-08-29T08:38:17.875Z,1009.22
2017-08-29T08:39:17.881Z,1009.25
2017-08-29T08:40:17.879Z,1009.21
2017-08-29T08:41:17.876Z,1009.2
2017-08-29T08:42:17.869Z,1009.19
2017-08-29T08:43:17.870Z,1009.2
2017-08-29T08:44:17.879Z,1009.22
2017-08-29T08:45:17.870Z,1009.22
2017-08-29T08:46:17.922Z,1009.21
2017-08-29T08:47:17.873Z,1009.17
2017-08-29T08:48:17.874Z,1009.18
2017-08-29T08:49:17.879Z,1009.22
2017-08-29T08:50:17.881Z,1009.18
2017-08-29T08:51:17.878Z,1009.16
2017-08-29T08:52:17.882Z,1009.15
2017-08-29T08:53:17.881Z,1009.18
2017-08-29T08:54:17.879Z,1009.12
2017-08-29T08:55:17.884Z,1009.12
2017-08-29T08:56:17.883Z,1009.12
2017-08-29T08:57:17.884Z,1009.05
2017-08-29T08:58:17.897Z,1009.06
2017-08-29T08:59:17.893Z,1009.02
2017-08-29T09:00:17.886Z,1009
2017-08-29T09:01:17.892Z,1009
2017-08-29T09:02:17.892Z,1008.95
2017-08-29T09:03:17.894Z,1008.94
2017-08-29T09:04:17.892Z,1008.94
2017-08-29T09:05:17.899Z,1008.95
2017-08-29T09:06:17.905Z,1008.95
2017-08-29T09:07:17.905Z,1008.95
2017-08-29T09:08:17.908Z,1008.93
2017-08-29T09:09:17.909Z,1008.92
2017-08-29T09:10:17.920Z,1008.91
2017-08-29T09:11:17.920Z,1008.94
2017-08-29T09:12:17.920Z,1008.95
2017-08-29T09:13:17.972Z,1008.87
2017-08-29T09:14:17.924Z,1008.89
2017-08-29T09:15:17.936Z,1008.85
2017-08-29T09:16:17.931Z,1008.84
2017-08-29T09:17:17.943Z,1008.86
2017-08-29T09:18:17.941Z,1008.87
2017-08-29T09:19:17.937Z,1008.87
2017-08-29T09:20:17.947Z,1008.86
2017-08-29T09:21:17.947Z,1008.85
2017-08-29T09:22:17.955Z,1008.85
2017-08-29T09:23:17.955Z,1008.85
2017-08-29T09:24:17.960Z,1008.84
2017-08-29T09:25:17.967Z,1008.86
2017-08-29T09:26:17.968Z,1008.9
2017-08-29T09:27:17.969Z,1008.91
2017-08-29T09:28:17.973Z,1008.9
2017-08-29T09:29:17.978Z,1008.88
2017-08-29T09:30:17.978Z,1008.84
2017-08-29T09:31:17.983Z,1008.79
2017-08-29T09:32:17.987Z,1008.79
2017-08-29T09:33:17.987Z,1008.83
2017-08-29T09:34:18.040Z,1008.79
2017-08-29T09:35:17.991Z,1008.77
2017-08-29T09:36:17.998Z,1008.78
2017-08-29T09:37:17.998Z,1008.78
2017-08-29T09:38:18.014Z,1008.79
2017-08-29T09:39:18.013Z,1008.72
2017-08-29T09:40:18.011Z,1008.69
2017-08-29T09:41:18.019Z,1008.69
2017-08-29T09:42:18.067Z,1008.68
2017-08-29T09:43:18.023Z,1008.63
2017-08-29T09:44:18.020Z,1008.61
2017-08-29T09:45:18.026Z,1008.64
2017-08-29T09:46:18.026Z,1008.62
2017-08-29T09:47:18.032Z,1008.63
2017-08-29T09:48:18.030Z,1008.56
2017-08-29T09:49:18.036Z,1008.55
2017-08-29T09:50:18.038Z,1008.56
2017-08-29T09:51:18.039Z,1008.55
2017-08-29T09:52:18.044Z,1008.52
2017-08-29T09:53:18.057Z,1008.47
2017-08-29T09:54:18.049Z,1008.52
2017-08-29T09:55:18.130Z,1008.49
2017-08-29T09:56:18.059Z,1008.47
2017-08-29T09:57:18.151Z,1008.51
2017-08-29T09:58:18.055Z,1008.54
2017-08-29T09:59:18.055Z,1008.51
2017-08-29T10:00:18.062Z,1008.57
2017-08-29T10:01:18.061Z,1008.52
2017-08-29T10:02:18.063Z,1008.5
2017-08-29T10:03:18.068Z,1008.53
2017-08-29T10:04:18.284Z,1008.48
2017-08-29T10:05:18.066Z,1008.46
2017-08-29T10:06:18.069Z,1008.43
2017-08-29T10:07:18.073Z,1008.4
2017-08-29T10:08:18.066Z,1008.41
2017-08-29T10:09:18.067Z,1008.37
2017-08-29T10:10:18.070Z,1008.34
2017-08-29T10:11:18.069Z,1008.35
2017-08-29T10:12:18.070Z,1008.33
2017-08-29T10:13:18.132Z,1008.38
2017-08-29T10:14:18.069Z,1008.33
2017-08-29T10:15:18.063Z,1008.29
2017-08-29T10:16:18.071Z,1008.31
2017-08-29T10:17:18.070Z,1008.29
2017-08-29T10:18:18.064Z,1008.32
2017-08-29T10:19:18.060Z,1008.35
2017-08-29T10:20:18.061Z,1008.34
2017-08-29T10:21:18.058Z,1008.34
2017-08-29T10:22:18.207Z,1008.33
2017-08-29T10:23:18.055Z,1008.32
2017-08-29T10:24:18.068Z,1008.33
2017-08-29T10:25:18.055Z,1008.33
2017-08-29T10:26:18.056Z,1008.37
2017-08-29T10:27:18.048Z,1008.33
2017-08-29T10:28:18.049Z,1008.33
2017-08-29T10:29:18.049Z,1008.33
2017-08-29T10:30:18.050Z,1008.31
2017-08-29T10:31:18.046Z,1008.31
2017-08-29T10:32:18.040Z,1008.29
2017-08-29T10:33:18.041Z,1008.23
2017-08-29T10:34:18.038Z,1008.18
2017-08-29T10:35:18.042Z,1008.18
2017-08-29T10:36:18.030Z,1008.18
2017-08-29T10:37:18.036Z,1008.2
2017-08-29T10:38:18.029Z,1008.18
2017-08-29T10:39:18.020Z,1008.13
2017-08-29T10:40:18.024Z,1008.18
2017-08-29T10:41:18.013Z,1008.1
2017-08-29T10:42:18.012Z,1008.14
2017-08-29T10:43:18.016Z,1008.1
2017-08-29T10:44:18.010Z,1008.11
2017-08-29T10:45:18.017Z,1008.07
2017-08-29T10:46:18.009Z,1008.08
2017-08-29T10:47:18.010Z,1008.02
2017-08-29T10:48:17.993Z,1008.03
2017-08-29T10:49:18.002Z,1008.01
2017-08-29T10:50:17.986Z,1008
2017-08-29T10:51:17.985Z,1007.96
2017-08-29T10:52:17.985Z,1007.92
2017-08-29T10:53:17.979Z,1007.93
2017-08-29T10:54:17.977Z,1007.93
2017-08-29T10:55:17.972Z,1007.93
2017-08-29T10:56:17.968Z,1007.95
2017-08-29T10:57:17.965Z,1007.93
2017-08-29T10:58:17.965Z,1007.97
2017-08-29T10:59:17.957Z,1007.96
2017-08-29T11:00:17.954Z,1008.01
2017-08-29T11:01:17.955Z,1007.98
2017-08-29T11:02:17.948Z,1007.95
2017-08-29T11:03:17.946Z,1007.92
2017-08-29T11:04:17.941Z,1007.93
2017-08-29T11:05:17.940Z,1007.95
2017-08-29T11:06:17.940Z,1007.91
2017-08-29T11:07:17.935Z,1007.93
2017-08-29T11:08:17.940Z,1007.93
2017-08-29T11:09:17.926Z,1007.92
2017-08-29T11:10:17.924Z,1007.86
2017-08-29T11:11:17.927Z,1007.84
2017-08-29T11:12:17.917Z,1007.86
2017-08-29T11:13:17.914Z,1007.91
2017-08-29T11:14:17.916Z,1007.85
2017-08-29T11:15:17.915Z,1007.9
2017-08-29T11:16:17.910Z,1007.87
2017-08-29T11:17:17.906Z,1007.84
2017-08-29T11:18:17.916Z,1007.88
2017-08-29T11:19:17.905Z,1007.84
2017-08-29T11:20:17.897Z,1007.88
2017-08-29T11:21:17.897Z,1007.84
2017-08-29T11:22:17.893Z,1007.82
2017-08-29T11:23:17.888Z,1007.82
2017-08-29T11:24:17.888Z,1007.78
2017-08-29T11:25:17.885Z,1007.77
2017-08-29T11:26:17.885Z,1007.78
2017-08-29T11:27:17.879Z,1007.77
2017-08-29T11:28:17.880Z,1007.75
2017-08-29T11:29:17.879Z,1007.73
2017-08-29T11:30:17.866Z,1007.77
2017-08-29T11:31:17.870Z,1007.72
2017-08-29T11:32:17.861Z,1007.71
2017-08-29T11:33:17.863Z,1007.69
2017-08-29T11:34:17.856Z,1007.72
2017-08-29T11:35:17.855Z,1007.7
2017-08-29T11:36:17.856Z,1007.72
2017-08-29T11:37:17.848Z,1007.7
2017-08-29T11:38:17.846Z,1007.66
2017-08-29T11:39:17.846Z,1007.63
2017-08-29T11:40:17.848Z,1007.63
2017-08-29T11:41:17.837Z,1007.66
2017-08-29T11:42:17.837Z,1007.6
2017-08-29T11:43:17.836Z,1007.67
2017-08-29T11:44:17.837Z,1007.66
2017-08-29T11:45:17.826Z,1007.66
2017-08-29T11:46:17.826Z,1007.69
2017-08-29T11:47:17.820Z,1007.61
2017-08-29T11:48:17.817Z,1007.62
2017-08-29T11:49:17.816Z,1007.64
2017-08-29T11:50:17.807Z,1007.67
2017-08-29T11:51:17.810Z,1007.67
2017-08-29T11:52:17.807Z,1007.65
2017-08-29T11:53:17.794Z,1007.6
2017-08-29T11:54:17.795Z,1007.63
2017-08-29T11:55:17.792Z,1007.62
2017-08-29T11:56:17.786Z,1007.64
2017-08-29T11:57:17.786Z,1007.64
2017-08-29T11:58:17.786Z,1007.59
2017-08-29T11:59:17.775Z,1007.67
2017-08-29T12:00:17.776Z,1007.65
2017-08-29T12:01:17.765Z,1007.63
2017-08-29T12:02:17.766Z,1007.6
2017-08-29T12:03:17.759Z,1007.64
2017-08-29T12:04:17.756Z,1007.61
2017-08-29T12:05:17.757Z,1007.65
2017-08-29T12:06:17.748Z,1007.61
2017-08-29T12:07:17.745Z,1007.58
2017-08-29T12:08:17.746Z,1007.55